Nearby METAR Reports

 

KMTN - Baltimore/Martin, Maryland, USA
Distance from station: SSE 8mi, 13km
Updated: Mon, 22-Sep-2014 1:45pm EDT
Partly cloudy
Partly cloudy
 
Temperature: 72°F , 22°C
Dew Point: 50°F , 10°C
Humidity: 47%
Barometer: 30.01 inHg , 1016.3 hPa
Clouds: Partly cloudy
Visibility: 10 miles , 16 km
Cloud details: Few Clouds 3000 ft
Partly cloudy 5000 ft
2014/09/22 17:45 KMTN 221745Z 10SM FEW030 SCT050 22/10 A3001
KDMH - Baltimore/Dwntwn, Maryland, USA
Distance from station: SW 12mi, 19km
Updated: Mon, 22-Sep-2014 1:54pm EDT

 
Temperature: 70°F , 21°C
Dew Point: 46°F , 8°C
Humidity: 43%
Barometer: 30.01 inHg , 1016.3 hPa
2014/09/22 17:54 KDMH 221754Z AUTO 21/08 A3001 RMK AO1 SLP161 T02110078 10222 20183 50002
 
KBWI - Balto/Wash Intl, Maryland, USA
Distance from station: SSW 20mi, 33km
Updated: Mon, 22-Sep-2014 1:54pm EDT
Partly cloudy
Partly cloudy
 Wind from WNW
Wind: WNW 18 mph , 30 km/h, Gust: 24 mph , 39 km/h
Temperature: 73°F , 23°C
Dew Point: 46°F , 8°C
Humidity: 38%
Barometer: 30.00 inHg , 1015.9 hPa
Clouds: Partly cloudy
Visibility: 10 miles , 16 km
Cloud details: Partly cloudy 4600 ft
2014/09/22 17:54 KBWI 221754Z 30016G21KT 10SM SCT046 23/08 A3000 RMK AO2 SLP158 T02280083 10228 20167 50002
KDMW - Carroll Cnty, Maryland, USA
Distance from station: WNW 30mi, 48km
Updated: Mon, 22-Sep-2014 2:05pm EDT
Clear
Clear
 Wind from NW
Wind: NW 13 mph , 20 km/h, Gust: 21 mph , 33 km/h
Temperature: 66°F , 19°C
Dew Point: 45°F , 7°C
Humidity: 46%
Barometer: 30.04 inHg , 1017.3 hPa
Clouds: Clear
Visibility: 10 miles , 16 km
2014/09/22 18:05 KDMW 221805Z AUTO 32011G18KT 10SM CLR 19/07 A3004 RMK AO2 LTG DSNT S
 
KNAK - Annapolis/Naval, Maryland, USA
Distance from station: S 30mi, 48km
Updated: Mon, 22-Sep-2014 1:54pm EDT
Few Clouds
Few Clouds
 Wind from NNW
Wind: NNW 10 mph , 17 km/h, Gust: 21 mph , 33 km/h
Temperature: 70°F , 21°C
Dew Point: 48°F , 9°C
Humidity: 46%
Barometer: 30.01 inHg , 1016.3 hPa
Clouds: Few Clouds
Visibility: 10 miles , 16 km
Cloud details: Few Clouds 5000 ft
2014/09/22 17:54 KNAK 221754Z AUTO 33009G18KT 10SM FEW050 21/09 A3001 RMK AO2 SLP163 T02110094 10211 20172 50004 $
KW29 - Stevensville, Maryland, USA
Distance from station: SSE 31mi, 50km
Updated: Mon, 22-Sep-2014 2:08pm EDT

 Wind from NW
Wind: NW 9 mph , 15 km/h, Gust: 17 mph , 28 km/h
Temperature: 70°F , 21°C
Dew Point: 46°F , 8°C
Humidity: 43%
Barometer: 30.01 inHg , 1016.3 hPa
Visibility: 10 miles , 16 km
2014/09/22 18:08 KW29 221808Z AUTO 32008G15KT 10SM 21/08 A3001 RMK AO1
 
KCGS - College Park, Maryland, USA
Distance from station: SW 38mi, 61km
Updated: Mon, 22-Sep-2014 2:05pm EDT
Partly cloudy
Partly cloudy
 Wind from NW
Wind: NW 10 mph , 17 km/h, Gust: 18 mph , 30 km/h
Temperature: 72°F , 22°C
Dew Point: 46°F , 8°C
Humidity: 41%
Barometer: 30.02 inHg , 1016.6 hPa
Clouds: Partly cloudy
Visibility: 10 miles , 16 km
Cloud details: Partly cloudy 4900 ft
2014/09/22 18:05 KCGS 221805Z AUTO 32009G16KT 10SM SCT049 22/08 A3002 RMK AO1
KGAI - Gaithersburg, Maryland, USA
Distance from station: WSW 40mi, 65km
Updated: Mon, 22-Sep-2014 1:55pm EDT
Partly cloudy
Partly cloudy
 Wind from WNW
Wind: WNW 17 mph , 28 km/h, Gust: 23 mph , 37 km/h
Temperature: 66°F , 19°C
Dew Point: 46°F , 8°C
Humidity: 49%
Barometer: 30.07 inHg , 1018.3 hPa
Clouds: Partly cloudy
Visibility: 10 miles , 16 km
Cloud details: Partly cloudy 4400 ft
2014/09/22 17:55 KGAI 221755Z 29015G20KT 10SM SCT044 19/08 A3007 RMK AO1 10200 20160 52003
 
KTHV - York, Pennsylvania, USA
Distance from station: NNW 40mi, 65km
Updated: Mon, 22-Sep-2014 1:53pm EDT
Few Clouds
Few Clouds
 Wind from NNW
Wind: NNW 14 mph , 22 km/h, Gust: 24 mph , 39 km/h
Temperature: 66°F , 19°C
Dew Point: 46°F , 8°C
Humidity: 49%
Barometer: 30.03 inHg , 1016.9 hPa
Clouds: Few Clouds
Visibility: 10 miles , 16 km
Cloud details: Few Clouds 4300 ft
2014/09/22 17:53 KTHV 221753Z AUTO 33012G21KT 10SM FEW043 19/08 A3003 RMK AO2 SLP169 T01890078 10200 20150 51006
KFDK - Frederick, Maryland, USA
Distance from station: W 47mi, 75km
Updated: Mon, 22-Sep-2014 1:50pm EDT

 
Visibility: 47 miles
2014/09/22 17:50 KFDK 221750Z 29011G19 10SM SCT046 21/09 A3007
 
KESN - Easton/Newnam, Maryland, USA
Distance from station: SSE 48mi, 78km
Updated: Mon, 22-Sep-2014 1:50pm EDT
Partly cloudy
Partly cloudy
 Wind from NW
Wind: NW 12 mph , 19 km/h, Gust: 20 mph , 31 km/h
Temperature: 73°F , 23°C
Dew Point: 50°F , 10°C
Humidity: 44%
Barometer: 30.04 inHg , 1017.3 hPa
Clouds: Partly cloudy
Visibility: 10 miles , 16 km
Cloud details: Partly cloudy 4500 ft
2014/09/22 17:50 KESN 221750Z 31010G17KT 10SM SCT045 23/10 A3004
KDCA - Washington/Natl, Washington D.c., USA
Distance from station: SW 49mi, 79km
Updated: Mon, 22-Sep-2014 1:52pm EDT
Partly cloudy
Partly cloudy
 Wind from NW
Wind: NW 16 mph , 26 km/h, Gust: 29 mph , 46 km/h
Temperature: 73°F , 23°C
Dew Point: 45°F , 7°C
Humidity: 36%
Barometer: 30.04 inHg , 1017.3 hPa
Clouds: Partly cloudy
Visibility: 10 miles , 16 km
Cloud details: Few Clouds 5000 ft
Partly cloudy 25000 ft
2014/09/22 17:52 KDCA 221752Z 31014G25KT 10SM FEW050 SCT250 23/07 A3004 RMK AO2 PK WND 34027/1725 SLP171 T02330072 10239 20194 50004
 
KLNS - Lancaster, Pennsylvania, USA
Distance from station: N 49mi, 79km
Updated: Mon, 22-Sep-2014 1:53pm EDT
Mostly cloudy
Mostly cloudy
 Wind from NW
Wind: NW 15 mph , 24 km/h, Gust: 23 mph , 37 km/h
Temperature: 66°F , 19°C
Dew Point: 45°F , 7°C
Humidity: 46%
Barometer: 30.01 inHg , 1016.3 hPa
Clouds: Mostly cloudy
Visibility: 10 miles , 16 km
Cloud details: Mostly cloudy 4400 ft
2014/09/22 17:53 KLNS 221753Z 32013G20KT 10SM BKN044 19/07 A3001 RMK AO2 SLP161 T01940072 10200 20144 52007
KILG - Wilmington, Delaware, USA
Distance from station: ENE 50mi, 81km
Updated: Mon, 22-Sep-2014 1:51pm EDT
Overcast
Overcast
 Wind from NNW
Wind: NNW 14 mph , 22 km/h
Temperature: 70°F , 21°C
Dew Point: 48°F , 9°C
Humidity: 46%
Barometer: 29.99 inHg , 1015.6 hPa
Clouds: Overcast
Visibility: 10 miles , 16 km
Cloud details: Overcast 4700 ft
2014/09/22 17:51 KILG 221751Z 33012KT 10SM OVC047 21/09 A2999 RMK AO2 SLP155 T02060094 10217 20172 50007